createdAt,value
2019-02-27T08:49:31.906Z,10.07
2019-02-27T08:52:02.711Z,10.90
2019-02-27T08:54:33.161Z,10.30
2019-02-27T08:57:03.669Z,10.67
2019-02-27T08:59:37.002Z,11.37
2019-02-27T09:02:09.194Z,11.90
2019-02-27T09:04:39.657Z,12.63
2019-02-27T09:07:10.342Z,12.53
2019-02-27T09:09:40.601Z,13.23
2019-02-27T09:12:13.084Z,11.87
2019-02-27T09:14:46.166Z,13.13
2019-02-27T09:17:18.731Z,12.10
2019-02-27T09:19:49.676Z,15.30
2019-02-27T09:22:21.127Z,13.60
2019-02-27T09:24:52.384Z,13.50
2019-02-27T09:27:22.373Z,13.43
2019-02-27T09:29:54.867Z,13.70
2019-02-27T09:32:25.092Z,11.37
2019-02-27T09:34:57.058Z,13.80
2019-02-27T09:37:27.562Z,13.37
2019-02-27T09:39:57.663Z,13.60
2019-02-27T09:42:28.543Z,13.00
2019-02-27T09:44:58.731Z,13.53
2019-02-27T09:47:28.304Z,14.10
2019-02-27T09:50:02.680Z,14.80
2019-02-27T09:52:32.290Z,13.63
2019-02-27T09:55:02.348Z,11.90
2019-02-27T09:57:32.886Z,14.57
2019-02-27T10:00:03.716Z,12.20
2019-02-27T10:02:37.473Z,12.37
2019-02-27T10:05:08.435Z,11.80
2019-02-27T10:07:38.918Z,8.80
2019-02-27T10:10:11.263Z,8.30
2019-02-27T10:12:42.343Z,7.70
2019-02-27T10:15:13.475Z,7.03
2019-02-27T10:17:44.284Z,7.70
2019-02-27T10:20:15.733Z,6.60
2019-02-27T10:22:45.854Z,7.67
2019-02-27T10:25:16.619Z,6.53
2019-02-27T10:27:47.326Z,7.87
2019-02-27T10:30:17.169Z,11.10
2019-02-27T10:32:47.556Z,9.07
2019-02-27T10:35:18.228Z,9.70
2019-02-27T10:37:50.775Z,8.93
2019-02-27T10:40:21.604Z,8.90
2019-02-27T10:42:51.767Z,9.23
2019-02-27T10:45:22.875Z,10.40
2019-02-27T10:47:54.733Z,11.97
2019-02-27T10:50:25.006Z,10.47
2019-02-27T10:52:55.108Z,13.37
2019-02-27T10:55:26.850Z,13.87
2019-02-27T10:57:57.509Z,14.17
2019-02-27T11:00:30.093Z,14.10
2019-02-27T11:03:02.567Z,17.07
2019-02-27T11:05:34.035Z,16.93
2019-02-27T11:08:05.559Z,17.00
2019-02-27T11:10:37.607Z,16.50
2019-02-27T11:13:10.112Z,15.10
2019-02-27T11:15:44.726Z,12.10
2019-02-27T11:18:15.515Z,11.80
2019-02-27T11:20:46.883Z,10.13
2019-02-27T11:23:17.817Z,10.30
2019-02-27T11:25:48.259Z,10.73
2019-02-27T11:28:22.194Z,9.17
2019-02-27T11:30:53.374Z,8.30
2019-02-27T11:33:25.996Z,8.37
2019-02-27T11:35:56.788Z,7.30
2019-02-27T11:38:31.169Z,7.50
2019-02-27T11:41:02.202Z,7.67
2019-02-27T11:43:32.603Z,9.37
2019-02-27T11:46:03.991Z,7.23
2019-02-27T11:48:34.184Z,6.50
2019-02-27T11:51:05.036Z,7.37
2019-02-27T11:53:36.541Z,5.80
2019-02-27T11:56:10.126Z,6.10
2019-02-27T11:58:40.726Z,5.87
2019-02-27T12:01:12.131Z,4.43
2019-02-27T12:03:45.657Z,5.43
2019-02-27T12:06:14.958Z,6.60
2019-02-27T12:08:45.884Z,7.13
2019-02-27T12:11:16.474Z,7.70
2019-02-27T12:13:46.756Z,6.90
2019-02-27T12:16:18.320Z,7.40
2019-02-27T12:18:51.110Z,6.87
2019-02-27T12:21:21.845Z,7.03
2019-02-27T12:23:51.805Z,5.50
2019-02-27T12:26:22.807Z,5.60
2019-02-27T12:28:53.670Z,5.80
2019-02-27T12:31:24.202Z,5.67
2019-02-27T12:33:54.457Z,5.20
2019-02-27T12:36:24.698Z,5.97
2019-02-27T12:38:54.782Z,5.00
2019-02-27T12:41:25.372Z,6.37
2019-02-27T12:43:56.292Z,4.37
2019-02-27T12:46:31.885Z,4.90
2019-02-27T12:49:01.022Z,5.10
2019-02-27T12:51:31.602Z,4.10
2019-02-27T12:54:01.897Z,5.10
2019-02-27T12:56:32.471Z,4.70
2019-02-27T12:59:04.930Z,4.40
2019-02-27T13:01:34.866Z,4.23
2019-02-27T13:04:04.744Z,4.67
2019-02-27T13:06:37.347Z,4.40
2019-02-27T13:09:09.565Z,4.90
2019-02-27T13:11:41.652Z,4.80
2019-02-27T13:14:12.701Z,4.77
2019-02-27T13:16:42.688Z,5.33
2019-02-27T13:19:14.056Z,4.43
2019-02-27T13:21:48.068Z,5.20
2019-02-27T13:24:18.854Z,4.30
2019-02-27T13:26:51.522Z,5.70
2019-02-27T13:29:21.579Z,4.80
2019-02-27T13:31:52.159Z,4.63
2019-02-27T13:34:22.286Z,4.80
2019-02-27T13:36:53.415Z,5.80
2019-02-27T13:39:25.605Z,5.43
2019-02-27T13:41:56.141Z,5.60
2019-02-27T13:44:28.572Z,6.40
2019-02-27T13:47:00.986Z,5.70
2019-02-27T13:49:33.301Z,5.70
2019-02-27T13:52:21.653Z,6.03
2019-02-27T13:54:47.778Z,8.63
2019-02-27T13:57:19.584Z,6.70
2019-02-27T14:02:41.277Z,6.53
2019-02-27T14:05:11.890Z,5.80
2019-02-27T14:07:45.170Z,6.80
2019-02-27T14:10:17.512Z,6.70
2019-02-27T14:12:49.383Z,6.50
2019-02-27T14:15:20.199Z,6.40
2019-02-27T14:17:49.933Z,7.27
2019-02-27T14:20:27.009Z,6.67
2019-02-27T14:22:57.932Z,6.87
2019-02-27T14:25:32.350Z,6.80
2019-02-27T14:28:00.650Z,7.30
2019-02-27T14:30:36.609Z,7.93
2019-02-27T14:33:07.650Z,8.40
2019-02-27T14:35:38.414Z,8.47
2019-02-27T14:38:10.318Z,9.00
2019-02-27T14:40:42.399Z,8.67
2019-02-27T14:43:12.155Z,9.73
2019-02-27T14:45:44.321Z,9.83
2019-02-27T14:48:14.493Z,9.40
2019-02-27T14:50:45.808Z,10.30
2019-02-27T14:53:18.929Z,10.60
2019-02-27T14:55:51.604Z,10.30
2019-02-27T14:58:24.082Z,9.63
2019-02-27T15:00:55.100Z,10.27
2019-02-27T15:03:29.244Z,11.20
2019-02-27T15:05:57.461Z,11.63
2019-02-27T15:08:28.015Z,10.97
2019-02-27T15:11:02.150Z,11.27
2019-02-27T15:13:33.067Z,13.93
2019-02-27T15:16:03.471Z,12.03
2019-02-27T15:18:34.158Z,10.63
2019-02-27T15:21:04.279Z,13.33
2019-02-27T15:23:33.882Z,13.07
2019-02-27T15:26:06.212Z,14.50
2019-02-27T15:28:36.231Z,14.63
2019-02-27T15:31:06.204Z,14.40
2019-02-27T15:33:39.057Z,13.53
2019-02-27T15:36:08.698Z,13.40
2019-02-27T15:38:38.307Z,13.80
2019-02-27T15:41:07.875Z,15.07
2019-02-27T15:43:37.791Z,15.00
2019-02-27T15:46:07.644Z,14.47
2019-02-27T15:48:40.926Z,15.50
2019-02-27T15:51:11.424Z,15.00
2019-02-27T15:53:41.688Z,14.70
2019-02-27T15:56:11.983Z,14.70
2019-02-27T15:58:42.063Z,14.60
2019-02-27T16:01:15.288Z,14.40
2019-02-27T16:03:46.735Z,15.03
2019-02-27T16:06:16.962Z,15.33
2019-02-27T16:08:47.292Z,13.87
2019-02-27T16:11:17.354Z,15.00
2019-02-27T16:13:47.409Z,13.50
2019-02-27T16:16:22.415Z,14.10
2019-02-27T16:18:49.712Z,14.50
2019-02-27T16:21:20.995Z,14.07
2019-02-27T16:23:52.259Z,14.23
2019-02-27T16:26:27.018Z,14.50
2019-02-27T16:28:53.816Z,15.93
2019-02-27T16:31:23.720Z,14.60
2019-02-27T16:33:55.544Z,13.23
2019-02-27T16:36:25.477Z,13.37
2019-02-27T16:38:56.101Z,13.23
2019-02-27T16:41:28.971Z,14.20
2019-02-27T16:43:57.941Z,13.63
2019-02-27T16:46:27.880Z,13.70
2019-02-27T16:48:58.537Z,15.63
2019-02-27T16:51:31.193Z,15.13
2019-02-27T16:54:00.084Z,15.80
2019-02-27T16:56:30.324Z,14.40
2019-02-27T16:59:01.188Z,15.77
2019-02-27T17:01:30.839Z,14.23
2019-02-27T17:04:01.086Z,14.77
2019-02-27T17:06:30.674Z,14.90
2019-02-27T17:09:00.501Z,15.40
2019-02-27T17:11:32.531Z,15.00
2019-02-27T17:14:02.174Z,14.17
2019-02-27T17:16:32.911Z,13.97
2019-02-27T17:19:02.833Z,13.77
2019-02-27T17:21:32.690Z,14.80
2019-02-27T17:24:02.255Z,15.13
2019-02-27T17:26:35.267Z,15.07
2019-02-27T17:29:05.764Z,15.77
2019-02-27T17:31:36.126Z,15.00
2019-02-27T17:34:06.104Z,15.30
2019-02-27T17:36:36.529Z,15.03
2019-02-27T17:39:07.963Z,14.30
2019-02-27T17:41:38.277Z,15.80
2019-02-27T17:44:09.222Z,16.40
2019-02-27T17:46:39.678Z,15.90
2019-02-27T17:49:09.181Z,15.13
2019-02-27T17:51:41.041Z,17.37
2019-02-27T17:54:11.470Z,17.27
2019-02-27T17:56:41.724Z,17.40
2019-02-27T17:59:11.313Z,17.47
2019-02-27T18:01:42.935Z,18.20
2019-02-27T18:04:14.568Z,19.73
2019-02-27T18:06:44.357Z,20.13
2019-02-27T18:09:14.157Z,20.20
2019-02-27T18:11:43.739Z,23.23
2019-02-27T18:14:13.321Z,20.50
2019-02-27T18:16:43.677Z,21.00
2019-02-27T18:19:16.742Z,23.60
2019-02-27T18:21:45.663Z,21.77
2019-02-27T18:24:15.670Z,21.73
2019-02-27T18:26:51.265Z,22.53
2019-02-27T18:29:22.472Z,20.67
2019-02-27T18:31:52.037Z,23.47
2019-02-27T18:34:23.635Z,24.50
2019-02-27T18:36:53.812Z,24.47
2019-02-27T18:39:25.631Z,23.27
2019-02-27T18:41:56.009Z,27.30
2019-02-27T18:44:25.504Z,26.80
2019-02-27T18:46:56.231Z,26.07
2019-02-27T18:49:26.907Z,27.47
2019-02-27T18:51:56.544Z,28.40
2019-02-27T18:54:26.913Z,28.03
2019-02-27T18:56:56.957Z,27.17
2019-02-27T18:59:30.352Z,29.40
2019-02-27T19:02:00.293Z,28.80
2019-02-27T19:04:35.004Z,29.30
2019-02-27T19:07:02.686Z,28.90
2019-02-27T19:09:33.229Z,30.67
2019-02-27T19:12:03.673Z,30.73
2019-02-27T19:14:36.696Z,33.53
2019-02-27T19:17:07.705Z,31.63
2019-02-27T19:19:37.562Z,33.10
2019-02-27T19:22:11.052Z,35.00
2019-02-27T19:24:39.574Z,35.27
2019-02-27T19:27:09.687Z,35.20
2019-02-27T19:29:41.601Z,37.67
2019-02-27T19:32:14.378Z,37.63
2019-02-27T19:34:47.958Z,37.77
2019-02-27T19:37:16.901Z,36.50
2019-02-27T19:39:46.822Z,38.73
2019-02-27T19:42:17.245Z,37.93
2019-02-27T19:44:47.497Z,38.20
2019-02-27T19:47:18.472Z,39.07
2019-02-27T19:49:49.189Z,38.70
2019-02-27T19:52:18.749Z,41.00
2019-02-27T19:54:51.792Z,42.13
2019-02-27T19:57:19.806Z,37.60
2019-02-27T19:59:49.416Z,43.20
2019-02-27T20:02:21.689Z,43.83
2019-02-27T20:04:52.110Z,42.30
2019-02-27T20:07:24.041Z,46.23
2019-02-27T20:09:54.502Z,48.13
2019-02-27T20:12:27.726Z,46.33
2019-02-27T20:14:58.120Z,50.10
2019-02-27T20:17:32.775Z,50.43
2019-02-27T20:20:04.093Z,51.30
2019-02-27T20:22:32.484Z,49.90
2019-02-27T20:25:02.432Z,47.63
2019-02-27T20:27:32.333Z,48.47
2019-02-27T20:30:02.328Z,41.87
2019-02-27T20:32:33.168Z,49.80
2019-02-27T20:35:04.277Z,50.43
2019-02-27T20:37:37.111Z,48.20
2019-02-27T20:40:07.929Z,50.10
2019-02-27T20:42:37.845Z,48.57
2019-02-27T20:45:11.458Z,50.23
2019-02-27T20:47:41.559Z,49.30
2019-02-27T20:50:20.882Z,49.67
2019-02-27T20:52:49.450Z,48.90
2019-02-27T20:55:19.533Z,49.37
2019-02-27T20:57:51.085Z,51.07
2019-02-27T21:00:21.793Z,49.23
2019-02-27T21:02:53.427Z,48.83
2019-02-27T21:05:25.673Z,48.40
2019-02-27T21:08:00.977Z,46.13
2019-02-27T21:10:27.390Z,49.40
2019-02-27T21:12:57.130Z,49.47
2019-02-27T21:15:32.502Z,53.53
2019-02-27T21:18:01.577Z,49.83
2019-02-27T21:20:33.119Z,47.87
2019-02-27T21:23:02.759Z,52.17
2019-02-27T21:25:32.722Z,51.10
2019-02-27T21:28:06.592Z,53.17
2019-02-27T21:30:35.386Z,51.70
2019-02-27T21:33:05.295Z,50.47
2019-02-27T21:35:35.558Z,51.37
2019-02-27T21:38:05.607Z,48.00
2019-02-27T21:40:36.151Z,51.60
2019-02-27T21:43:07.068Z,51.43
2019-02-27T21:45:38.427Z,50.80
2019-02-27T21:48:08.821Z,49.20
2019-02-27T21:50:40.011Z,53.80
2019-02-27T21:53:10.110Z,53.50
2019-02-27T21:55:39.691Z,49.70
2019-02-27T21:58:19.739Z,53.23
2019-02-27T22:00:41.630Z,53.50
2019-02-27T22:03:11.213Z,53.77
2019-02-27T22:05:43.004Z,53.77
2019-02-27T22:08:13.067Z,54.77
2019-02-27T22:10:42.892Z,54.10
2019-02-27T22:13:13.189Z,52.37
2019-02-27T22:15:44.702Z,53.93
2019-02-27T22:18:17.754Z,54.53
2019-02-27T22:20:48.021Z,56.70
2019-02-27T22:23:18.293Z,50.00
2019-02-27T22:25:48.721Z,51.97
2019-02-27T22:28:19.939Z,49.57
2019-02-27T22:30:49.734Z,57.07
2019-02-27T22:33:23.045Z,56.23
2019-02-27T22:35:51.122Z,58.20
2019-02-27T22:38:25.835Z,55.30
2019-02-27T22:40:52.202Z,54.87
2019-02-27T22:43:23.346Z,57.93
2019-02-27T22:45:53.011Z,55.83
2019-02-27T22:48:27.372Z,53.40
2019-02-27T22:50:54.406Z,56.53
2019-02-27T22:53:26.171Z,56.13
2019-02-27T22:55:55.947Z,56.83
2019-02-27T22:58:27.541Z,54.67
2019-02-27T23:01:08.815Z,54.63
2019-02-27T23:03:45.221Z,54.57
2019-02-27T23:06:15.127Z,52.57
2019-02-27T23:08:44.938Z,52.30
2019-02-27T23:11:15.230Z,54.83
2019-02-27T23:13:48.431Z,53.67
2019-02-27T23:16:19.569Z,51.03
2019-02-27T23:18:50.267Z,51.97
2019-02-27T23:21:19.750Z,52.73
2019-02-27T23:23:49.321Z,55.10
2019-02-27T23:26:20.150Z,57.00
2019-02-27T23:28:50.956Z,54.83
2019-02-27T23:31:23.422Z,52.83
2019-02-27T23:33:52.984Z,54.50
2019-02-27T23:36:22.876Z,53.80
2019-02-27T23:38:52.487Z,50.83
2019-02-27T23:41:24.658Z,51.47
2019-02-27T23:43:55.172Z,50.53
2019-02-27T23:46:25.330Z,51.00
2019-02-27T23:48:55.595Z,50.10
2019-02-27T23:51:25.492Z,51.50
2019-02-27T23:53:55.433Z,49.77
2019-02-27T23:56:24.938Z,49.37
2019-02-27T23:58:55.113Z,50.73
